sensor_id;sensor_type;location;lat;lon;timestamp;P1;P2;P0
50866;PMS7003;36839;51.946;21.002;2022-09-09T00:04:35;17.25;14.75;11.75
50866;PMS7003;36839;51.946;21.002;2022-09-09T00:07:09;16.25;14.50;11.00
50866;PMS7003;36839;51.946;21.002;2022-09-09T00:09:50;14.50;14.50;11.75
50866;PMS7003;36839;51.946;21.002;2022-09-09T00:12:32;16.25;15.25;11.50
50866;PMS7003;36839;51.946;21.002;2022-09-09T00:15:18;18.50;16.25;12.00
50866;PMS7003;36839;51.946;21.002;2022-09-09T00:17:43;15.75;14.25;11.50
50866;PMS7003;36839;51.946;21.002;2022-09-09T00:20:33;20.00;16.50;12.25
50866;PMS7003;36839;51.946;21.002;2022-09-09T00:23:09;14.75;14.75;10.75
50866;PMS7003;36839;51.946;21.002;2022-09-09T00:25:59;16.00;16.00;12.75
50866;PMS7003;36839;51.946;21.002;2022-09-09T00:28:24;20.00;17.00;13.75
50866;PMS7003;36839;51.946;21.002;2022-09-09T00:30:55;15.50;15.25;11.25
50866;PMS7003;36839;51.946;21.002;2022-09-09T00:33:24;17.25;13.50;10.00
50866;PMS7003;36839;51.946;21.002;2022-09-09T00:35:54;15.00;14.75;12.25
50866;PMS7003;36839;51.946;21.002;2022-09-09T00:38:36;18.75;17.25;13.25
50866;PMS7003;36839;51.946;21.002;2022-09-09T00:52:52;18.00;16.25;13.00
50866;PMS7003;36839;51.946;21.002;2022-09-09T00:55:20;18.75;17.00;14.00
50866;PMS7003;36839;51.946;21.002;2022-09-09T00:57:48;19.75;19.75;14.75
50866;PMS7003;36839;51.946;21.002;2022-09-09T01:00:27;3.00;1.25;0.50
50866;PMS7003;36839;51.946;21.002;2022-09-09T01:02:59;18.00;18.00;13.75
50866;PMS7003;36839;51.946;21.002;2022-09-09T01:08:24;22.00;19.25;14.50
50866;PMS7003;36839;51.946;21.002;2022-09-09T01:10:51;17.25;16.25;12.75
50866;PMS7003;36839;51.946;21.002;2022-09-09T01:13:25;18.25;16.25;12.25
50866;PMS7003;36839;51.946;21.002;2022-09-09T01:16:00;18.75;18.00;13.25
50866;PMS7003;36839;51.946;21.002;2022-09-09T01:18:39;21.00;19.00;14.25
50866;PMS7003;36839;51.946;21.002;2022-09-09T01:21:09;17.75;16.50;11.75
50866;PMS7003;36839;51.946;21.002;2022-09-09T01:26:41;22.50;20.50;16.75
50866;PMS7003;36839;51.946;21.002;2022-09-09T01:29:10;19.75;18.75;14.25
50866;PMS7003;36839;51.946;21.002;2022-09-09T01:31:41;21.75;19.00;14.75
50866;PMS7003;36839;51.946;21.002;2022-09-09T01:34:36;18.25;18.00;14.25
50866;PMS7003;36839;51.946;21.002;2022-09-09T01:37:08;24.25;18.75;14.25
50866;PMS7003;36839;51.946;21.002;2022-09-09T01:39:38;24.00;21.50;16.75
50866;PMS7003;36839;51.946;21.002;2022-09-09T01:42:07;21.00;20.00;15.25
50866;PMS7003;36839;51.946;21.002;2022-09-09T01:44:37;21.50;18.75;15.25
50866;PMS7003;36839;51.946;21.002;2022-09-09T01:47:06;20.00;17.00;14.75
50866;PMS7003;36839;51.946;21.002;2022-09-09T01:49:37;21.00;18.25;15.50
50866;PMS7003;36839;51.946;21.002;2022-09-09T01:52:05;23.25;21.00;15.50
50866;PMS7003;36839;51.946;21.002;2022-09-09T01:54:33;21.50;18.50;15.25
50866;PMS7003;36839;51.946;21.002;2022-09-09T01:57:11;23.25;20.00;14.25
50866;PMS7003;36839;51.946;21.002;2022-09-09T01:59:58;24.50;19.00;14.75
50866;PMS7003;36839;51.946;21.002;2022-09-09T02:02:39;20.25;19.75;15.00
50866;PMS7003;36839;51.946;21.002;2022-09-09T02:08:09;19.25;18.00;14.00
50866;PMS7003;36839;51.946;21.002;2022-09-09T02:10:46;19.25;19.25;16.00
50866;PMS7003;36839;51.946;21.002;2022-09-09T02:13:16;20.50;18.50;13.00
50866;PMS7003;36839;51.946;21.002;2022-09-09T02:15:52;22.50;19.25;14.75
50866;PMS7003;36839;51.946;21.002;2022-09-09T02:19:08;19.00;18.00;14.50
50866;PMS7003;36839;51.946;21.002;2022-09-09T02:20:56;20.00;18.00;14.50
50866;PMS7003;36839;51.946;21.002;2022-09-09T02:23:25;19.50;17.75;14.50
50866;PMS7003;36839;51.946;21.002;2022-09-09T02:25:54;22.50;20.50;16.50
50866;PMS7003;36839;51.946;21.002;2022-09-09T02:28:29;21.00;21.00;14.25
50866;PMS7003;36839;51.946;21.002;2022-09-09T02:30:58;22.25;20.75;15.25
50866;PMS7003;36839;51.946;21.002;2022-09-09T02:33:28;19.25;18.50;14.50
50866;PMS7003;36839;51.946;21.002;2022-09-09T02:35:57;27.50;21.25;17.50
50866;PMS7003;36839;51.946;21.002;2022-09-09T02:38:28;19.25;18.75;13.25
50866;PMS7003;36839;51.946;21.002;2022-09-09T02:40:59;22.50;21.00;15.00
50866;PMS7003;36839;51.946;21.002;2022-09-09T02:43:35;20.75;19.75;15.50
50866;PMS7003;36839;51.946;21.002;2022-09-09T02:48:53;17.50;16.00;13.00
50866;PMS7003;36839;51.946;21.002;2022-09-09T02:54:21;16.75;16.75;13.50
50866;PMS7003;36839;51.946;21.002;2022-09-09T02:57:04;21.75;19.00;15.00
50866;PMS7003;36839;51.946;21.002;2022-09-09T02:59:38;25.00;20.75;15.75
50866;PMS7003;36839;51.946;21.002;2022-09-09T03:02:07;15.75;15.75;13.25
50866;PMS7003;36839;51.946;21.002;2022-09-09T03:04:35;18.75;17.50;13.00
50866;PMS7003;36839;51.946;21.002;2022-09-09T03:07:04;20.25;16.75;13.25
50866;PMS7003;36839;51.946;21.002;2022-09-09T03:09:34;8.50;6.50;6.50
50866;PMS7003;36839;51.946;21.002;2022-09-09T03:12:02;23.00;17.00;12.75
50866;PMS7003;36839;51.946;21.002;2022-09-09T03:14:30;21.75;19.00;14.00
50866;PMS7003;36839;51.946;21.002;2022-09-09T03:16:58;21.75;18.00;14.00
50866;PMS7003;36839;51.946;21.002;2022-09-09T03:19:26;15.60;15.40;12.00
50866;PMS7003;36839;51.946;21.002;2022-09-09T03:21:53;17.00;16.00;11.25
50866;PMS7003;36839;51.946;21.002;2022-09-09T03:24:20;18.00;18.00;14.25
50866;PMS7003;36839;51.946;21.002;2022-09-09T03:26:49;17.00;17.00;12.25
50866;PMS7003;36839;51.946;21.002;2022-09-09T03:29:17;17.50;17.25;14.00
50866;PMS7003;36839;51.946;21.002;2022-09-09T03:31:46;19.25;16.25;12.00
50866;PMS7003;36839;51.946;21.002;2022-09-09T03:34:16;15.25;14.00;11.00
50866;PMS7003;36839;51.946;21.002;2022-09-09T03:36:44;16.25;14.25;11.50
50866;PMS7003;36839;51.946;21.002;2022-09-09T03:39:15;19.00;15.00;11.00
50866;PMS7003;36839;51.946;21.002;2022-09-09T03:41:43;20.40;16.40;12.40
50866;PMS7003;36839;51.946;21.002;2022-09-09T03:44:10;13.00;12.00;9.00
50866;PMS7003;36839;51.946;21.002;2022-09-09T03:46:37;16.00;14.75;12.00
50866;PMS7003;36839;51.946;21.002;2022-09-09T03:49:05;17.75;14.75;11.75
50866;PMS7003;36839;51.946;21.002;2022-09-09T03:51:34;19.00;17.50;12.00
50866;PMS7003;36839;51.946;21.002;2022-09-09T03:54:02;16.25;15.25;10.75
50866;PMS7003;36839;51.946;21.002;2022-09-09T03:56:31;15.00;15.00;12.75
50866;PMS7003;36839;51.946;21.002;2022-09-09T03:58:58;16.50;15.50;12.50
50866;PMS7003;36839;51.946;21.002;2022-09-09T04:01:26;13.40;12.60;10.00
50866;PMS7003;36839;51.946;21.002;2022-09-09T04:03:54;16.00;13.00;9.20
50866;PMS7003;36839;51.946;21.002;2022-09-09T04:06:23;14.80;13.60;10.20
50866;PMS7003;36839;51.946;21.002;2022-09-09T04:08:50;13.25;11.25;8.50
50866;PMS7003;36839;51.946;21.002;2022-09-09T04:11:18;15.50;14.25;11.00
50866;PMS7003;36839;51.946;21.002;2022-09-09T04:13:45;18.25;15.00;11.00
50866;PMS7003;36839;51.946;21.002;2022-09-09T04:16:16;13.00;13.00;11.00
50866;PMS7003;36839;51.946;21.002;2022-09-09T04:18:42;16.20;13.00;9.80
50866;PMS7003;36839;51.946;21.002;2022-09-09T04:21:11;14.50;13.50;9.25
50866;PMS7003;36839;51.946;21.002;2022-09-09T04:23:42;13.40;11.00;9.60
50866;PMS7003;36839;51.946;21.002;2022-09-09T04:26:08;18.60;15.80;12.00
50866;PMS7003;36839;51.946;21.002;2022-09-09T04:28:38;15.00;14.40;11.00
50866;PMS7003;36839;51.946;21.002;2022-09-09T04:31:09;13.00;10.80;9.40
50866;PMS7003;36839;51.946;21.002;2022-09-09T04:33:47;13.80;13.00;9.60
50866;PMS7003;36839;51.946;21.002;2022-09-09T04:36:16;20.50;17.50;13.00
50866;PMS7003;36839;51.946;21.002;2022-09-09T04:38:47;14.40;13.20;10.40
50866;PMS7003;36839;51.946;21.002;2022-09-09T04:41:16;14.80;12.20;9.20
50866;PMS7003;36839;51.946;21.002;2022-09-09T04:43:45;12.00;12.00;8.60
50866;PMS7003;36839;51.946;21.002;2022-09-09T04:46:13;14.40;12.80;10.20
50866;PMS7003;36839;51.946;21.002;2022-09-09T04:48:44;17.40;15.60;12.00
50866;PMS7003;36839;51.946;21.002;2022-09-09T04:51:13;14.25;11.75;8.25
50866;PMS7003;36839;51.946;21.002;2022-09-09T04:53:42;12.50;9.75;7.50
50866;PMS7003;36839;51.946;21.002;2022-09-09T04:58:40;14.80;13.80;11.00
50866;PMS7003;36839;51.946;21.002;2022-09-09T05:01:16;14.00;14.00;10.50
50866;PMS7003;36839;51.946;21.002;2022-09-09T05:03:56;19.50;15.50;12.00
50866;PMS7003;36839;51.946;21.002;2022-09-09T05:06:25;13.40;13.40;10.40
50866;PMS7003;36839;51.946;21.002;2022-09-09T05:08:55;12.60;11.40;8.00
50866;PMS7003;36839;51.946;21.002;2022-09-09T05:11:25;17.75;16.00;11.50
50866;PMS7003;36839;51.946;21.002;2022-09-09T05:13:53;15.50;15.25;12.00
50866;PMS7003;36839;51.946;21.002;2022-09-09T05:16:22;18.00;16.50;12.50
50866;PMS7003;36839;51.946;21.002;2022-09-09T05:18:51;16.50;14.50;12.00
50866;PMS7003;36839;51.946;21.002;2022-09-09T05:21:19;15.25;12.00;10.00
50866;PMS7003;36839;51.946;21.002;2022-09-09T05:23:49;19.00;17.75;13.00
50866;PMS7003;36839;51.946;21.002;2022-09-09T05:26:19;15.00;15.00;12.00
50866;PMS7003;36839;51.946;21.002;2022-09-09T05:28:48;14.80;11.80;8.60
50866;PMS7003;36839;51.946;21.002;2022-09-09T05:31:17;19.50;18.50;14.00
50866;PMS7003;36839;51.946;21.002;2022-09-09T05:33:45;16.00;10.75;9.25
50866;PMS7003;36839;51.946;21.002;2022-09-09T05:36:16;15.75;14.50;11.50
50866;PMS7003;36839;51.946;21.002;2022-09-09T05:38:46;20.25;18.75;14.00
50866;PMS7003;36839;51.946;21.002;2022-09-09T05:41:16;19.25;19.00;14.00
50866;PMS7003;36839;51.946;21.002;2022-09-09T05:43:44;20.50;17.75;12.75
50866;PMS7003;36839;51.946;21.002;2022-09-09T05:46:14;23.25;19.25;14.50
50866;PMS7003;36839;51.946;21.002;2022-09-09T05:48:43;19.00;18.25;14.00
50866;PMS7003;36839;51.946;21.002;2022-09-09T05:51:14;25.00;20.25;13.00
50866;PMS7003;36839;51.946;21.002;2022-09-09T05:53:44;18.40;17.00;12.40
50866;PMS7003;36839;51.946;21.002;2022-09-09T05:56:15;24.00;20.00;15.00
50866;PMS7003;36839;51.946;21.002;2022-09-09T05:58:48;19.50;18.50;14.00
50866;PMS7003;36839;51.946;21.002;2022-09-09T06:01:17;20.00;16.00;12.60
50866;PMS7003;36839;51.946;21.002;2022-09-09T06:03:50;15.40;14.40;12.00
50866;PMS7003;36839;51.946;21.002;2022-09-09T06:06:27;15.75;14.25;10.75
50866;PMS7003;36839;51.946;21.002;2022-09-09T06:08:56;22.50;22.50;16.75
50866;PMS7003;36839;51.946;21.002;2022-09-09T06:11:25;22.75;20.75;15.25
50866;PMS7003;36839;51.946;21.002;2022-09-09T06:13:54;25.00;22.50;15.25
50866;PMS7003;36839;51.946;21.002;2022-09-09T06:16:21;19.75;18.50;12.50
50866;PMS7003;36839;51.946;21.002;2022-09-09T06:18:50;20.00;17.75;12.00
50866;PMS7003;36839;51.946;21.002;2022-09-09T06:21:21;21.00;20.80;13.60
50866;PMS7003;36839;51.946;21.002;2022-09-09T06:23:54;20.00;17.25;12.75
50866;PMS7003;36839;51.946;21.002;2022-09-09T06:26:22;28.75;25.00;17.50
50866;PMS7003;36839;51.946;21.002;2022-09-09T06:28:51;23.75;20.00;14.00
50866;PMS7003;36839;51.946;21.002;2022-09-09T06:31:23;18.75;17.50;13.25
50866;PMS7003;36839;51.946;21.002;2022-09-09T06:33:53;20.75;19.00;14.75
50866;PMS7003;36839;51.946;21.002;2022-09-09T06:36:22;21.75;21.75;16.25
50866;PMS7003;36839;51.946;21.002;2022-09-09T06:38:53;20.80;17.00;12.80
50866;PMS7003;36839;51.946;21.002;2022-09-09T06:41:21;16.00;15.50;11.50
50866;PMS7003;36839;51.946;21.002;2022-09-09T06:43:49;26.50;24.00;17.75
50866;PMS7003;36839;51.946;21.002;2022-09-09T06:46:19;25.75;23.75;17.50
50866;PMS7003;36839;51.946;21.002;2022-09-09T06:48:50;20.00;19.00;15.25
50866;PMS7003;36839;51.946;21.002;2022-09-09T06:51:20;22.25;19.25;14.50
50866;PMS7003;36839;51.946;21.002;2022-09-09T06:53:56;15.40;15.40;11.80
50866;PMS7003;36839;51.946;21.002;2022-09-09T06:56:27;18.20;15.60;13.20
50866;PMS7003;36839;51.946;21.002;2022-09-09T06:59:04;28.50;23.50;14.75
50866;PMS7003;36839;51.946;21.002;2022-09-09T07:01:37;23.50;18.75;14.25
50866;PMS7003;36839;51.946;21.002;2022-09-09T07:04:13;21.00;17.75;13.00
50866;PMS7003;36839;51.946;21.002;2022-09-09T07:06:46;23.00;19.75;14.00
50866;PMS7003;36839;51.946;21.002;2022-09-09T07:09:15;18.00;16.50;12.50
50866;PMS7003;36839;51.946;21.002;2022-09-09T07:11:43;30.75;25.75;18.50
50866;PMS7003;36839;51.946;21.002;2022-09-09T07:14:11;28.00;22.00;15.25
50866;PMS7003;36839;51.946;21.002;2022-09-09T07:16:44;25.25;21.25;15.25
50866;PMS7003;36839;51.946;21.002;2022-09-09T07:19:13;23.50;23.50;17.50
50866;PMS7003;36839;51.946;21.002;2022-09-09T07:21:42;28.25;24.00;18.00
50866;PMS7003;36839;51.946;21.002;2022-09-09T07:24:12;25.50;23.50;15.50
50866;PMS7003;36839;51.946;21.002;2022-09-09T07:26:39;20.00;17.00;13.00
50866;PMS7003;36839;51.946;21.002;2022-09-09T07:29:08;18.20;18.20;14.60
50866;PMS7003;36839;51.946;21.002;2022-09-09T07:31:38;24.25;21.00;14.50
50866;PMS7003;36839;51.946;21.002;2022-09-09T07:34:10;21.50;20.25;15.25
50866;PMS7003;36839;51.946;21.002;2022-09-09T07:36:40;17.75;15.75;13.00
50866;PMS7003;36839;51.946;21.002;2022-09-09T07:39:12;27.75;24.75;16.75
50866;PMS7003;36839;51.946;21.002;2022-09-09T07:41:47;18.50;17.00;13.00
50866;PMS7003;36839;51.946;21.002;2022-09-09T07:44:13;18.25;17.50;13.75
50866;PMS7003;36839;51.946;21.002;2022-09-09T07:46:48;28.00;27.25;17.50
50866;PMS7003;36839;51.946;21.002;2022-09-09T07:49:14;31.00;25.50;18.25
50866;PMS7003;36839;51.946;21.002;2022-09-09T07:51:45;33.00;24.00;16.50
50866;PMS7003;36839;51.946;21.002;2022-09-09T07:54:14;25.75;21.75;15.50
50866;PMS7003;36839;51.946;21.002;2022-09-09T07:56:46;26.75;25.00;17.75
50866;PMS7003;36839;51.946;21.002;2022-09-09T07:59:15;26.50;23.25;18.00
50866;PMS7003;36839;51.946;21.002;2022-09-09T08:01:44;32.75;28.75;19.00
50866;PMS7003;36839;51.946;21.002;2022-09-09T08:04:15;30.75;28.25;18.50
50866;PMS7003;36839;51.946;21.002;2022-09-09T08:06:52;31.75;29.25;19.75
50866;PMS7003;36839;51.946;21.002;2022-09-09T08:09:22;23.75;22.50;16.50
50866;PMS7003;36839;51.946;21.002;2022-09-09T08:11:52;25.00;24.75;16.75
50866;PMS7003;36839;51.946;21.002;2022-09-09T08:14:22;39.00;34.00;22.00
50866;PMS7003;36839;51.946;21.002;2022-09-09T08:16:51;33.50;30.50;21.50
50866;PMS7003;36839;51.946;21.002;2022-09-09T08:19:23;27.75;23.00;14.75
50866;PMS7003;36839;51.946;21.002;2022-09-09T08:21:50;30.75;26.00;16.25
50866;PMS7003;36839;51.946;21.002;2022-09-09T08:24:19;33.75;32.50;20.25
50866;PMS7003;36839;51.946;21.002;2022-09-09T08:26:48;26.00;23.00;17.00
50866;PMS7003;36839;51.946;21.002;2022-09-09T08:29:18;33.25;31.25;20.25
50866;PMS7003;36839;51.946;21.002;2022-09-09T08:31:48;34.50;31.00;20.00
50866;PMS7003;36839;51.946;21.002;2022-09-09T08:34:18;34.50;32.00;21.25
50866;PMS7003;36839;51.946;21.002;2022-09-09T08:36:47;29.25;25.25;17.50
50866;PMS7003;36839;51.946;21.002;2022-09-09T08:39:17;36.00;28.75;19.00
50866;PMS7003;36839;51.946;21.002;2022-09-09T08:47:22;24.75;23.25;17.00
50866;PMS7003;36839;51.946;21.002;2022-09-09T08:50:25;26.25;23.75;17.00
50866;PMS7003;36839;51.946;21.002;2022-09-09T08:55:47;34.75;30.75;19.25
50866;PMS7003;36839;51.946;21.002;2022-09-09T08:58:25;34.50;28.25;18.00
50866;PMS7003;36839;51.946;21.002;2022-09-09T09:03:43;33.75;32.00;22.50
50866;PMS7003;36839;51.946;21.002;2022-09-09T09:11:58;28.00;25.00;16.50
50866;PMS7003;36839;51.946;21.002;2022-09-09T09:14:29;27.50;25.00;16.25
50866;PMS7003;36839;51.946;21.002;2022-09-09T09:17:01;31.00;29.00;20.50
50866;PMS7003;36839;51.946;21.002;2022-09-09T09:19:45;31.00;28.00;21.00
50866;PMS7003;36839;51.946;21.002;2022-09-09T09:24:51;35.75;30.00;18.75
50866;PMS7003;36839;51.946;21.002;2022-09-09T09:27:25;25.50;15.75;14.50
50866;PMS7003;36839;51.946;21.002;2022-09-09T09:29:53;29.25;24.00;18.00
50866;PMS7003;36839;51.946;21.002;2022-09-09T09:32:22;34.50;30.25;18.50
50866;PMS7003;36839;51.946;21.002;2022-09-09T09:34:54;34.00;25.75;15.75
50866;PMS7003;36839;51.946;21.002;2022-09-09T09:37:26;23.40;21.80;15.00
50866;PMS7003;36839;51.946;21.002;2022-09-09T09:40:07;30.75;25.75;18.75
50866;PMS7003;36839;51.946;21.002;2022-09-09T09:43:40;33.00;24.25;16.00
50866;PMS7003;36839;51.946;21.002;2022-09-09T09:48:09;27.50;25.75;17.75
50866;PMS7003;36839;51.946;21.002;2022-09-09T09:50:34;32.75;28.25;18.75
50866;PMS7003;36839;51.946;21.002;2022-09-09T09:53:17;35.25;23.25;15.50
50866;PMS7003;36839;51.946;21.002;2022-09-09T09:55:44;26.80;21.00;14.80
50866;PMS7003;36839;51.946;21.002;2022-09-09T09:58:16;25.20;20.20;14.00
50866;PMS7003;36839;51.946;21.002;2022-09-09T10:00:52;22.00;20.80;13.40
50866;PMS7003;36839;51.946;21.002;2022-09-09T10:03:38;27.00;24.75;16.00
50866;PMS7003;36839;51.946;21.002;2022-09-09T10:05:58;27.00;24.40;16.20
50866;PMS7003;36839;51.946;21.002;2022-09-09T10:08:28;30.25;25.25;17.00
50866;PMS7003;36839;51.946;21.002;2022-09-09T10:13:56;22.50;22.50;16.00
50866;PMS7003;36839;51.946;21.002;2022-09-09T10:19:13;29.00;21.50;15.00
50866;PMS7003;36839;51.946;21.002;2022-09-09T10:21:47;29.50;26.50;17.75
50866;PMS7003;36839;51.946;21.002;2022-09-09T10:35:30;40.50;32.50;20.25
50866;PMS7003;36839;51.946;21.002;2022-09-09T10:38:13;34.75;32.00;19.00
50866;PMS7003;36839;51.946;21.002;2022-09-09T10:54:21;38.25;33.25;22.25
50866;PMS7003;36839;51.946;21.002;2022-09-09T10:57:17;35.25;27.25;17.50
50866;PMS7003;36839;51.946;21.002;2022-09-09T10:59:45;26.00;25.50;14.25
50866;PMS7003;36839;51.946;21.002;2022-09-09T11:02:17;36.25;33.00;21.50
50866;PMS7003;36839;51.946;21.002;2022-09-09T11:04:53;34.00;30.25;19.50
50866;PMS7003;36839;51.946;21.002;2022-09-09T11:10:04;33.00;27.75;19.75
50866;PMS7003;36839;51.946;21.002;2022-09-09T11:12:32;39.25;30.75;21.00
50866;PMS7003;36839;51.946;21.002;2022-09-09T11:15:13;33.00;28.50;18.50
50866;PMS7003;36839;51.946;21.002;2022-09-09T11:17:52;32.75;31.50;20.75
50866;PMS7003;36839;51.946;21.002;2022-09-09T11:20:27;34.25;26.00;17.25
50866;PMS7003;36839;51.946;21.002;2022-09-09T11:23:14;33.00;25.25;16.75
50866;PMS7003;36839;51.946;21.002;2022-09-09T11:25:53;35.75;30.75;19.50
50866;PMS7003;36839;51.946;21.002;2022-09-09T11:42:18;36.50;32.75;19.00
50866;PMS7003;36839;51.946;21.002;2022-09-09T11:44:53;37.25;27.25;20.00
50866;PMS7003;36839;51.946;21.002;2022-09-09T11:47:27;40.25;29.00;18.50
50866;PMS7003;36839;51.946;21.002;2022-09-09T11:50:07;38.50;30.75;19.25
50866;PMS7003;36839;51.946;21.002;2022-09-09T11:52:37;29.00;25.75;17.00
50866;PMS7003;36839;51.946;21.002;2022-09-09T11:55:28;31.50;27.50;18.50
50866;PMS7003;36839;51.946;21.002;2022-09-09T11:58:03;41.00;32.50;22.00
50866;PMS7003;36839;51.946;21.002;2022-09-09T12:00:36;36.75;29.25;19.25
50866;PMS7003;36839;51.946;21.002;2022-09-09T12:03:55;34.50;32.25;17.25
50866;PMS7003;36839;51.946;21.002;2022-09-09T12:06:13;28.25;25.75;17.75
50866;PMS7003;36839;51.946;21.002;2022-09-09T12:08:43;51.25;37.50;24.00
50866;PMS7003;36839;51.946;21.002;2022-09-09T12:11:22;41.75;31.50;21.50
50866;PMS7003;36839;51.946;21.002;2022-09-09T12:13:52;36.75;29.50;19.75
50866;PMS7003;36839;51.946;21.002;2022-09-09T12:16:33;26.75;24.75;16.25
50866;PMS7003;36839;51.946;21.002;2022-09-09T12:22:25;32.80;28.40;17.80
50866;PMS7003;36839;51.946;21.002;2022-09-09T12:24:16;34.25;23.50;17.25
50866;PMS7003;36839;51.946;21.002;2022-09-09T12:26:46;37.50;31.50;20.00
50866;PMS7003;36839;51.946;21.002;2022-09-09T12:32:25;29.75;24.75;15.75
50866;PMS7003;36839;51.946;21.002;2022-09-09T12:35:01;40.25;32.25;20.75
50866;PMS7003;36839;51.946;21.002;2022-09-09T12:37:50;43.75;34.75;23.00
50866;PMS7003;36839;51.946;21.002;2022-09-09T12:40:23;36.75;29.50;19.75
50866;PMS7003;36839;51.946;21.002;2022-09-09T12:42:51;34.50;28.00;20.00
50866;PMS7003;36839;51.946;21.002;2022-09-09T12:45:26;41.25;30.00;18.00
50866;PMS7003;36839;51.946;21.002;2022-09-09T12:48:05;35.00;28.25;19.00
50866;PMS7003;36839;51.946;21.002;2022-09-09T12:50:34;42.50;35.75;22.25
50866;PMS7003;36839;51.946;21.002;2022-09-09T12:53:09;32.25;28.75;19.00
50866;PMS7003;36839;51.946;21.002;2022-09-09T12:55:48;46.00;32.50;21.50
50866;PMS7003;36839;51.946;21.002;2022-09-09T12:58:11;38.50;29.75;18.50
50866;PMS7003;36839;51.946;21.002;2022-09-09T13:00:48;38.50;30.00;21.00
50866;PMS7003;36839;51.946;21.002;2022-09-09T13:03:21;28.25;26.25;17.75
50866;PMS7003;36839;51.946;21.002;2022-09-09T13:05:53;36.25;32.25;19.25
50866;PMS7003;36839;51.946;21.002;2022-09-09T13:08:23;31.00;26.00;18.25
50866;PMS7003;36839;51.946;21.002;2022-09-09T13:11:02;36.75;33.00;21.50
50866;PMS7003;36839;51.946;21.002;2022-09-09T13:13:34;39.25;33.25;22.00
50866;PMS7003;36839;51.946;21.002;2022-09-09T13:16:07;38.75;31.25;20.75
50866;PMS7003;36839;51.946;21.002;2022-09-09T13:18:51;31.50;29.25;19.75
50866;PMS7003;36839;51.946;21.002;2022-09-09T13:21:36;40.50;30.50;20.00
50866;PMS7003;36839;51.946;21.002;2022-09-09T13:26:54;19.75;12.00;5.25
50866;PMS7003;36839;51.946;21.002;2022-09-09T13:29:23;37.00;31.25;19.75
50866;PMS7003;36839;51.946;21.002;2022-09-09T13:31:51;39.50;32.75;20.25
50866;PMS7003;36839;51.946;21.002;2022-09-09T13:34:29;31.25;26.00;17.50
50866;PMS7003;36839;51.946;21.002;2022-09-09T13:37:00;30.75;24.75;17.50
50866;PMS7003;36839;51.946;21.002;2022-09-09T13:39:34;38.25;29.25;18.50
50866;PMS7003;36839;51.946;21.002;2022-09-09T13:42:19;42.00;32.50;21.25
50866;PMS7003;36839;51.946;21.002;2022-09-09T13:44:38;41.50;32.00;20.25
50866;PMS7003;36839;51.946;21.002;2022-09-09T13:47:21;39.75;31.50;21.25
50866;PMS7003;36839;51.946;21.002;2022-09-09T13:49:55;35.50;28.50;18.75
50866;PMS7003;36839;51.946;21.002;2022-09-09T13:52:21;33.25;31.00;20.25
50866;PMS7003;36839;51.946;21.002;2022-09-09T13:54:49;37.25;27.75;15.75
50866;PMS7003;36839;51.946;21.002;2022-09-09T13:57:24;43.50;34.00;21.50
50866;PMS7003;36839;51.946;21.002;2022-09-09T14:00:09;41.75;32.25;21.25
50866;PMS7003;36839;51.946;21.002;2022-09-09T14:02:44;37.00;29.25;18.50
50866;PMS7003;36839;51.946;21.002;2022-09-09T14:05:16;39.25;32.50;18.75
50866;PMS7003;36839;51.946;21.002;2022-09-09T14:07:49;37.75;31.75;19.50
50866;PMS7003;36839;51.946;21.002;2022-09-09T14:10:16;36.50;29.75;18.75
50866;PMS7003;36839;51.946;21.002;2022-09-09T14:12:45;31.25;29.50;19.75
50866;PMS7003;36839;51.946;21.002;2022-09-09T14:15:13;36.00;29.50;18.75
50866;PMS7003;36839;51.946;21.002;2022-09-09T14:17:40;36.00;27.75;17.00
50866;PMS7003;36839;51.946;21.002;2022-09-09T14:20:12;32.75;29.75;20.50
50866;PMS7003;36839;51.946;21.002;2022-09-09T14:22:43;33.50;27.75;18.75
50866;PMS7003;36839;51.946;21.002;2022-09-09T14:25:12;36.25;29.50;20.50
50866;PMS7003;36839;51.946;21.002;2022-09-09T14:27:39;31.00;22.75;15.75
50866;PMS7003;36839;51.946;21.002;2022-09-09T14:30:07;46.00;33.25;20.00
50866;PMS7003;36839;51.946;21.002;2022-09-09T14:32:43;32.50;30.00;20.75
50866;PMS7003;36839;51.946;21.002;2022-09-09T14:35:15;35.75;29.50;19.00
50866;PMS7003;36839;51.946;21.002;2022-09-09T14:37:48;39.50;33.50;21.25
50866;PMS7003;36839;51.946;21.002;2022-09-09T14:40:21;43.50;30.50;20.50
50866;PMS7003;36839;51.946;21.002;2022-09-09T14:42:50;26.75;19.25;6.50
50866;PMS7003;36839;51.946;21.002;2022-09-09T14:45:20;39.75;35.00;21.00
50866;PMS7003;36839;51.946;21.002;2022-09-09T14:47:50;40.00;32.00;19.75
50866;PMS7003;36839;51.946;21.002;2022-09-09T14:50:21;36.25;27.50;18.50
50866;PMS7003;36839;51.946;21.002;2022-09-09T14:52:49;35.75;30.75;18.50
50866;PMS7003;36839;51.946;21.002;2022-09-09T14:55:17;40.75;28.50;18.25
50866;PMS7003;36839;51.946;21.002;2022-09-09T14:57:44;39.50;31.75;18.75
50866;PMS7003;36839;51.946;21.002;2022-09-09T15:00:12;35.25;30.50;19.75
50866;PMS7003;36839;51.946;21.002;2022-09-09T15:02:40;31.50;28.25;18.25
50866;PMS7003;36839;51.946;21.002;2022-09-09T15:05:07;43.50;31.00;20.00
50866;PMS7003;36839;51.946;21.002;2022-09-09T15:07:37;35.00;30.25;18.75
50866;PMS7003;36839;51.946;21.002;2022-09-09T15:10:09;41.50;34.25;22.25
50866;PMS7003;36839;51.946;21.002;2022-09-09T15:12:37;42.50;32.50;21.50
50866;PMS7003;36839;51.946;21.002;2022-09-09T15:15:04;41.50;33.75;23.00
50866;PMS7003;36839;51.946;21.002;2022-09-09T15:17:34;49.25;35.25;22.50
50866;PMS7003;36839;51.946;21.002;2022-09-09T15:20:02;45.25;33.50;21.00
50866;PMS7003;36839;51.946;21.002;2022-09-09T15:22:32;40.00;32.75;19.75
50866;PMS7003;36839;51.946;21.002;2022-09-09T15:25:03;30.00;26.50;18.00
50866;PMS7003;36839;51.946;21.002;2022-09-09T15:27:34;43.25;36.50;21.50
50866;PMS7003;36839;51.946;21.002;2022-09-09T15:30:05;93.25;74.75;46.25
50866;PMS7003;36839;51.946;21.002;2022-09-09T15:32:39;71.75;53.00;34.25
50866;PMS7003;36839;51.946;21.002;2022-09-09T15:35:08;59.25;42.50;27.75
50866;PMS7003;36839;51.946;21.002;2022-09-09T15:37:36;33.50;30.75;17.50
50866;PMS7003;36839;51.946;21.002;2022-09-09T15:40:04;50.00;36.50;23.00
50866;PMS7003;36839;51.946;21.002;2022-09-09T15:42:32;39.00;33.75;21.00
50866;PMS7003;36839;51.946;21.002;2022-09-09T15:45:00;31.75;28.25;17.00
50866;PMS7003;36839;51.946;21.002;2022-09-09T15:47:30;30.50;28.00;18.25
50866;PMS7003;36839;51.946;21.002;2022-09-09T15:50:00;29.50;27.75;16.25